createdAt,value
2017-04-24T00:00:26.900Z,0
2017-04-24T00:01:07.376Z,0
2017-04-24T00:01:47.859Z,0
2017-04-24T00:02:28.340Z,0
2017-04-24T00:03:08.829Z,0
2017-04-24T00:03:49.309Z,0
2017-04-24T00:04:29.786Z,0
2017-04-24T00:05:10.289Z,0
2017-04-24T00:05:50.762Z,0
2017-04-24T00:06:31.247Z,0
2017-04-24T00:07:11.718Z,0
2017-04-24T00:07:52.199Z,0
2017-04-24T00:08:32.698Z,0
2017-04-24T00:09:13.168Z,0
2017-04-24T00:09:53.641Z,0
2017-04-24T00:10:34.785Z,0
2017-04-24T00:11:15.257Z,0
2017-04-24T00:11:55.738Z,0
2017-04-24T00:12:36.218Z,0
2017-04-24T00:13:16.720Z,0
2017-04-24T00:13:57.188Z,0
2017-04-24T00:14:37.651Z,0
2017-04-24T00:15:18.138Z,0
2017-04-24T00:15:58.630Z,0
2017-04-24T00:16:39.115Z,0
2017-04-24T00:17:19.602Z,0
2017-04-24T00:18:00.113Z,0
2017-04-24T00:18:40.583Z,0
2017-04-24T00:19:21.067Z,0
2017-04-24T00:20:01.544Z,0
2017-04-24T00:20:42.042Z,0
2017-04-24T00:21:22.528Z,0
2017-04-24T00:22:03.016Z,0
2017-04-24T00:22:43.527Z,0
2017-04-24T00:23:24.002Z,0
2017-04-24T00:24:04.481Z,0
2017-04-24T00:24:44.980Z,0
2017-04-24T00:25:25.492Z,0
2017-04-24T00:26:05.970Z,0
2017-04-24T00:26:46.445Z,0
2017-04-24T00:27:26.952Z,0
2017-04-24T00:28:07.435Z,0
2017-04-24T00:28:47.913Z,0
2017-04-24T00:29:28.408Z,0
2017-04-24T00:30:08.899Z,0
2017-04-24T00:30:49.371Z,0
2017-04-24T00:31:29.871Z,0
2017-04-24T00:32:10.361Z,0
2017-04-24T00:32:50.847Z,0
2017-04-24T00:33:31.343Z,0
2017-04-24T00:34:11.838Z,0
2017-04-24T00:34:52.325Z,0
2017-04-24T00:35:32.811Z,0
2017-04-24T00:36:13.307Z,0
2017-04-24T00:36:53.778Z,0
2017-04-24T00:37:34.271Z,0
2017-04-24T00:38:14.759Z,0
2017-04-24T00:38:55.257Z,0
2017-04-24T00:39:35.730Z,0
2017-04-24T00:40:16.210Z,0
2017-04-24T00:40:56.695Z,0
2017-04-24T00:41:37.189Z,0
2017-04-24T00:42:17.670Z,0
2017-04-24T00:42:58.147Z,0
2017-04-24T00:43:38.612Z,0
2017-04-24T00:44:19.115Z,0
2017-04-24T00:44:59.616Z,0
2017-04-24T00:45:40.095Z,0
2017-04-24T00:46:20.593Z,0
2017-04-24T00:47:01.080Z,0
2017-04-24T00:47:41.564Z,0
2017-04-24T00:48:22.063Z,0
2017-04-24T00:49:02.538Z,0
2017-04-24T00:49:43.020Z,0
2017-04-24T00:50:23.523Z,0
2017-04-24T00:51:04.017Z,0
2017-04-24T00:51:44.507Z,0
2017-04-24T00:52:25.000Z,0
2017-04-24T00:53:05.483Z,0
2017-04-24T00:53:45.984Z,0
2017-04-24T00:54:26.478Z,0
2017-04-24T00:55:06.968Z,0
2017-04-24T00:55:47.450Z,0
2017-04-24T00:56:27.938Z,0
2017-04-24T00:57:08.435Z,0
2017-04-24T00:57:48.923Z,0
2017-04-24T00:58:29.397Z,0
2017-04-24T00:59:09.873Z,0
2017-04-24T00:59:50.379Z,0
2017-04-24T01:00:30.868Z,0
2017-04-24T01:01:11.348Z,0
2017-04-24T01:01:51.839Z,0
2017-04-24T01:02:32.321Z,0
2017-04-24T01:03:12.802Z,0
2017-04-24T01:03:53.297Z,0
2017-04-24T01:04:33.819Z,0
2017-04-24T01:05:14.269Z,0
2017-04-24T01:05:54.753Z,0
2017-04-24T01:06:35.238Z,0
2017-04-24T01:07:15.725Z,0
2017-04-24T01:07:56.207Z,0
2017-04-24T01:08:36.686Z,0
2017-04-24T01:09:17.176Z,0
2017-04-24T01:09:57.664Z,0
2017-04-24T01:10:38.145Z,0
2017-04-24T01:11:18.623Z,0
2017-04-24T01:11:59.113Z,0
2017-04-24T01:12:39.596Z,0
2017-04-24T01:13:20.096Z,0
2017-04-24T01:14:00.585Z,0
2017-04-24T01:14:41.076Z,0
2017-04-24T01:15:21.557Z,0
2017-04-24T01:16:02.046Z,0
2017-04-24T01:16:42.522Z,0
2017-04-24T01:17:23.019Z,0
2017-04-24T01:18:03.505Z,0
2017-04-24T01:18:43.995Z,0
2017-04-24T01:19:24.493Z,0
2017-04-24T01:20:04.982Z,0
2017-04-24T01:20:45.466Z,0
2017-04-24T01:21:25.962Z,0
2017-04-24T01:22:06.447Z,0
2017-04-24T01:22:46.930Z,0
2017-04-24T01:23:27.417Z,0
2017-04-24T01:24:07.899Z,0
2017-04-24T01:24:48.395Z,0
2017-04-24T01:25:28.886Z,0
2017-04-24T01:26:09.393Z,0
2017-04-24T01:26:49.873Z,0
2017-04-24T01:27:30.345Z,0
2017-04-24T01:28:10.846Z,0
2017-04-24T01:28:51.332Z,0
2017-04-24T01:29:31.807Z,0
2017-04-24T01:30:12.285Z,0
2017-04-24T01:30:52.781Z,0
2017-04-24T01:31:33.268Z,0
2017-04-24T01:32:13.763Z,0
2017-04-24T01:32:54.233Z,0
2017-04-24T01:33:34.719Z,0
2017-04-24T01:34:15.220Z,0
2017-04-24T01:34:55.713Z,0
2017-04-24T01:35:36.202Z,0
2017-04-24T01:36:16.702Z,0
2017-04-24T01:36:57.162Z,0
2017-04-24T01:37:37.643Z,0
2017-04-24T01:38:18.141Z,0
2017-04-24T01:38:58.618Z,0
2017-04-24T01:39:39.095Z,0
2017-04-24T01:40:19.582Z,0
2017-04-24T01:41:00.070Z,0
2017-04-24T01:41:40.551Z,0
2017-04-24T01:42:21.025Z,0
2017-04-24T01:43:01.514Z,0
2017-04-24T01:43:42.012Z,0
2017-04-24T01:44:22.490Z,0
2017-04-24T01:45:02.966Z,0
2017-04-24T01:45:43.451Z,0
2017-04-24T01:46:23.942Z,0
2017-04-24T01:47:04.427Z,0
2017-04-24T01:47:44.909Z,0
2017-04-24T01:48:25.383Z,0
2017-04-24T01:49:05.882Z,0
2017-04-24T01:49:46.375Z,0
2017-04-24T01:50:26.857Z,0
2017-04-24T01:51:07.359Z,0
2017-04-24T01:51:47.832Z,0
2017-04-24T01:52:28.320Z,0
2017-04-24T01:53:08.811Z,0
2017-04-24T01:53:49.302Z,0
2017-04-24T01:54:29.788Z,0
2017-04-24T01:55:10.276Z,0
2017-04-24T01:55:50.775Z,0
2017-04-24T01:56:31.264Z,0
2017-04-24T01:57:11.759Z,0
2017-04-24T01:57:52.247Z,0
2017-04-24T01:58:32.741Z,0
2017-04-24T01:59:13.225Z,0
2017-04-24T01:59:53.727Z,0
2017-04-24T02:00:34.208Z,0
2017-04-24T02:01:14.723Z,0
2017-04-24T02:01:55.170Z,0
2017-04-24T02:02:35.664Z,0
2017-04-24T02:03:16.155Z,0
2017-04-24T02:03:56.647Z,0
2017-04-24T02:04:37.144Z,0
2017-04-24T02:05:17.630Z,0
2017-04-24T02:05:58.109Z,0
2017-04-24T02:06:38.600Z,0
2017-04-24T02:07:19.092Z,0
2017-04-24T02:07:59.572Z,0
2017-04-24T02:08:40.062Z,0
2017-04-24T02:09:20.569Z,0
2017-04-24T02:10:01.033Z,0
2017-04-24T02:10:41.506Z,0
2017-04-24T02:11:22.008Z,0
2017-04-24T02:12:02.488Z,0
2017-04-24T02:12:42.971Z,0
2017-04-24T02:13:23.461Z,0
2017-04-24T02:14:03.949Z,0
2017-04-24T02:14:44.427Z,0
2017-04-24T02:15:24.899Z,0
2017-04-24T02:16:05.385Z,0
2017-04-24T02:16:45.870Z,0
2017-04-24T02:17:26.359Z,0
2017-04-24T02:18:06.855Z,0
2017-04-24T02:18:47.343Z,0
2017-04-24T02:19:27.843Z,0
2017-04-24T02:20:08.333Z,0
2017-04-24T02:20:48.807Z,0
2017-04-24T02:21:29.318Z,0
2017-04-24T02:22:09.791Z,0
2017-04-24T02:22:50.268Z,0
2017-04-24T02:23:30.757Z,0
2017-04-24T02:24:11.249Z,0
2017-04-24T02:24:51.728Z,0
2017-04-24T02:25:32.207Z,0
2017-04-24T02:27:44.908Z,0
2017-04-24T02:28:25.417Z,0
2017-04-24T02:29:05.844Z,0
2017-04-24T02:29:46.345Z,0
2017-04-24T02:30:26.843Z,0
2017-04-24T02:31:07.326Z,0
2017-04-24T02:31:47.799Z,0
2017-04-24T02:32:28.283Z,0
2017-04-24T02:33:08.785Z,0
2017-04-24T02:33:49.253Z,0
2017-04-24T02:34:29.718Z,0
2017-04-24T02:35:10.209Z,0
2017-04-24T02:35:50.696Z,0
2017-04-24T02:36:31.173Z,0
2017-04-24T02:37:11.647Z,0
2017-04-24T02:37:52.124Z,0
2017-04-24T02:38:32.615Z,0
2017-04-24T02:39:13.105Z,0
2017-04-24T02:39:53.588Z,0
2017-04-24T02:40:34.070Z,0
2017-04-24T02:41:14.568Z,0
2017-04-24T02:41:55.061Z,0
2017-04-24T02:42:35.535Z,0
2017-04-24T02:43:16.024Z,0
2017-04-24T02:43:56.513Z,0
2017-04-24T02:44:37.003Z,0
2017-04-24T02:45:17.498Z,0
2017-04-24T02:45:57.981Z,0
2017-04-24T02:46:38.467Z,0
2017-04-24T02:47:18.949Z,0
2017-04-24T02:47:59.436Z,0
2017-04-24T02:48:39.951Z,0
2017-04-24T02:49:20.413Z,0
2017-04-24T02:50:00.887Z,0
2017-04-24T02:50:41.390Z,0
2017-04-24T02:51:21.864Z,0
2017-04-24T02:52:02.347Z,0
2017-04-24T02:52:42.838Z,0
2017-04-24T02:53:23.334Z,0
2017-04-24T02:54:03.840Z,0
2017-04-24T02:54:44.324Z,0
2017-04-24T02:55:24.809Z,0
2017-04-24T02:56:05.292Z,0
2017-04-24T02:56:45.767Z,0
2017-04-24T02:57:26.260Z,0
2017-04-24T02:58:06.734Z,0
2017-04-24T02:58:47.228Z,0
2017-04-24T02:59:27.710Z,0
2017-04-24T03:00:08.213Z,0
2017-04-24T03:00:48.690Z,0
2017-04-24T03:01:29.173Z,0
2017-04-24T03:02:09.659Z,0
2017-04-24T03:02:50.146Z,0
2017-04-24T03:03:30.627Z,0
2017-04-24T03:04:11.110Z,0
2017-04-24T03:04:51.598Z,0
2017-04-24T03:05:32.087Z,0
2017-04-24T03:06:12.572Z,0
2017-04-24T03:06:53.059Z,0
2017-04-24T03:07:33.564Z,0
2017-04-24T03:08:14.039Z,0
2017-04-24T03:08:54.525Z,0
2017-04-24T03:09:35.023Z,0
2017-04-24T03:10:15.516Z,0
2017-04-24T03:10:56.003Z,0
2017-04-24T03:11:36.479Z,0
2017-04-24T03:12:16.986Z,0
2017-04-24T03:12:57.459Z,0
2017-04-24T03:13:37.925Z,0
2017-04-24T03:14:18.406Z,0
2017-04-24T03:14:58.894Z,0
2017-04-24T03:15:39.390Z,0
2017-04-24T03:16:19.889Z,0
2017-04-24T03:17:00.341Z,0
2017-04-24T03:17:40.832Z,0
2017-04-24T03:18:21.327Z,0
2017-04-24T03:19:01.810Z,0
2017-04-24T03:19:42.306Z,0
2017-04-24T03:20:22.799Z,0
2017-04-24T03:21:03.282Z,0
2017-04-24T03:21:43.762Z,0
2017-04-24T03:22:24.243Z,0
2017-04-24T03:23:04.744Z,0
2017-04-24T03:23:45.218Z,0
2017-04-24T03:24:25.698Z,0
2017-04-24T03:25:06.184Z,0
2017-04-24T03:25:46.669Z,0
2017-04-24T03:26:27.154Z,0
2017-04-24T03:27:07.648Z,0
2017-04-24T03:27:48.153Z,0
2017-04-24T03:28:28.625Z,0
2017-04-24T03:29:09.104Z,0
2017-04-24T03:29:49.595Z,0
2017-04-24T03:30:30.084Z,0
2017-04-24T03:31:10.578Z,0
2017-04-24T03:31:51.072Z,0
2017-04-24T03:32:31.580Z,0
2017-04-24T03:33:12.074Z,0
2017-04-24T03:33:52.549Z,0
2017-04-24T03:34:33.046Z,0
2017-04-24T03:35:13.513Z,0
2017-04-24T03:35:53.993Z,0
2017-04-24T03:36:34.484Z,0
2017-04-24T03:37:14.978Z,0
2017-04-24T03:37:55.464Z,0
2017-04-24T03:38:35.961Z,0
2017-04-24T03:39:16.456Z,0
2017-04-24T03:39:56.958Z,0
2017-04-24T03:41:54.598Z,0
2017-04-24T03:42:35.076Z,0
2017-04-24T03:43:15.560Z,0
2017-04-24T03:43:56.053Z,0
2017-04-24T03:44:36.535Z,0
2017-04-24T03:45:17.018Z,0
2017-04-24T03:45:57.515Z,0
2017-04-24T03:46:38.010Z,4
2017-04-24T03:47:18.485Z,4
2017-04-24T03:47:58.963Z,4
2017-04-24T03:48:39.450Z,4
2017-04-24T03:49:19.951Z,0
2017-04-24T03:50:00.429Z,0
2017-04-24T03:50:40.916Z,4
2017-04-24T03:51:21.419Z,4
2017-04-24T03:52:01.892Z,4
2017-04-24T03:52:42.361Z,8
2017-04-24T03:53:22.840Z,4
2017-04-24T03:54:03.324Z,4
2017-04-24T03:54:43.813Z,8
2017-04-24T03:55:24.290Z,8
2017-04-24T03:56:04.775Z,8
2017-04-24T03:56:45.253Z,8
2017-04-24T03:57:25.767Z,8
2017-04-24T03:58:06.231Z,12
2017-04-24T03:58:46.713Z,16
2017-04-24T03:59:27.203Z,16
2017-04-24T04:00:07.690Z,16
2017-04-24T04:00:48.173Z,20
2017-04-24T04:01:28.669Z,24
2017-04-24T04:02:09.164Z,24
2017-04-24T04:02:49.643Z,28
2017-04-24T04:03:30.124Z,32
2017-04-24T04:04:10.621Z,32
2017-04-24T04:04:51.103Z,36
2017-04-24T04:05:31.575Z,40
2017-04-24T04:06:12.063Z,44
2017-04-24T04:06:52.534Z,48
2017-04-24T04:07:33.025Z,52
2017-04-24T04:08:13.506Z,56
2017-04-24T04:08:53.996Z,64
2017-04-24T04:09:34.479Z,68
2017-04-24T04:10:14.972Z,76
2017-04-24T04:10:55.488Z,80
2017-04-24T04:11:35.922Z,92
2017-04-24T04:12:16.401Z,100
2017-04-24T04:12:56.908Z,108
2017-04-24T04:13:37.378Z,116
2017-04-24T04:14:17.859Z,128
2017-04-24T04:14:58.340Z,132
2017-04-24T04:15:38.846Z,144
2017-04-24T04:16:19.308Z,156
2017-04-24T04:16:59.794Z,168
2017-04-24T04:17:40.283Z,176
2017-04-24T04:18:20.781Z,192
2017-04-24T04:19:01.258Z,204
2017-04-24T04:19:41.746Z,216
2017-04-24T04:20:22.229Z,228
2017-04-24T04:21:02.713Z,240
2017-04-24T04:21:43.196Z,256
2017-04-24T04:22:23.693Z,268
2017-04-24T04:23:04.190Z,284
2017-04-24T04:23:44.665Z,300
2017-04-24T04:24:25.162Z,316
2017-04-24T04:25:05.651Z,336
2017-04-24T04:25:46.141Z,352
2017-04-24T04:26:26.618Z,368
2017-04-24T04:27:07.126Z,388
2017-04-24T04:27:47.600Z,400
2017-04-24T04:28:28.079Z,420
2017-04-24T04:29:08.554Z,440
2017-04-24T04:29:49.046Z,460
2017-04-24T04:30:29.547Z,480
2017-04-24T04:31:10.031Z,496
2017-04-24T04:31:50.515Z,520
2017-04-24T04:32:31.012Z,536
2017-04-24T04:33:11.508Z,560
2017-04-24T04:33:52.000Z,576
2017-04-24T04:34:32.490Z,600
2017-04-24T04:35:12.968Z,620
2017-04-24T04:35:53.461Z,644
2017-04-24T04:36:33.926Z,664
2017-04-24T04:37:14.421Z,688
2017-04-24T04:37:54.902Z,704
2017-04-24T04:38:35.367Z,728
2017-04-24T04:39:15.844Z,752
2017-04-24T04:39:56.327Z,772
2017-04-24T04:40:36.819Z,796
2017-04-24T04:41:17.316Z,812
2017-04-24T04:41:57.834Z,836
2017-04-24T04:42:38.314Z,860
2017-04-24T04:43:18.808Z,880
2017-04-24T04:43:59.283Z,900
2017-04-24T04:44:39.783Z,924
2017-04-24T04:45:20.282Z,944
2017-04-24T04:46:00.767Z,964
2017-04-24T04:46:41.260Z,984
2017-04-24T04:47:21.748Z,1008
2017-04-24T04:48:02.235Z,1028
2017-04-24T04:48:42.727Z,1048
2017-04-24T04:49:23.225Z,1072
2017-04-24T04:50:03.711Z,1092
2017-04-24T04:50:44.206Z,1116
2017-04-24T04:51:24.691Z,1132
2017-04-24T04:52:05.188Z,1156
2017-04-24T04:52:45.683Z,1176
2017-04-24T04:53:26.168Z,1196
2017-04-24T04:54:06.663Z,1216
2017-04-24T04:54:47.162Z,1240
2017-04-24T04:55:27.643Z,1256
2017-04-24T04:56:08.114Z,1276
2017-04-24T04:56:48.607Z,1300
2017-04-24T04:57:29.094Z,1320
2017-04-24T04:58:09.597Z,1336
2017-04-24T04:58:50.049Z,1360
2017-04-24T04:59:30.544Z,1376
2017-04-24T05:00:11.041Z,1396
2017-04-24T05:00:51.513Z,1416
2017-04-24T05:01:31.989Z,1436
2017-04-24T05:02:12.474Z,1456
2017-04-24T05:02:52.963Z,1476
2017-04-24T05:03:33.455Z,1496
2017-04-24T05:04:13.927Z,1512
2017-04-24T05:04:54.413Z,1532
2017-04-24T05:05:34.905Z,1556
2017-04-24T05:06:15.389Z,1572
2017-04-24T05:06:55.888Z,1596
2017-04-24T05:07:36.385Z,1616
2017-04-24T05:08:16.874Z,1632
2017-04-24T05:08:57.365Z,1652
2017-04-24T05:09:37.853Z,1672
2017-04-24T05:10:18.337Z,1692
2017-04-24T05:10:58.811Z,1708
2017-04-24T05:11:39.301Z,1728
2017-04-24T05:12:19.794Z,1744
2017-04-24T05:13:00.315Z,1768
2017-04-24T05:13:40.776Z,1788
2017-04-24T05:14:21.269Z,1804
2017-04-24T05:15:01.747Z,1824
2017-04-24T05:15:42.232Z,1848
2017-04-24T05:16:22.709Z,1864
2017-04-24T05:17:03.209Z,1884
2017-04-24T05:17:44.482Z,1912
2017-04-24T05:18:25.134Z,2048
2017-04-24T05:19:05.631Z,2476
2017-04-24T05:19:46.112Z,2944
2017-04-24T05:20:26.746Z,3344
2017-04-24T05:21:07.302Z,3612
2017-04-24T05:21:47.801Z,3824
2017-04-24T05:22:28.308Z,3948
2017-04-24T05:23:08.872Z,4020
2017-04-24T05:23:49.421Z,4092
2017-04-24T05:24:30.020Z,4152
2017-04-24T05:25:10.677Z,4216
2017-04-24T05:25:51.306Z,4288
2017-04-24T05:26:31.886Z,4356
2017-04-24T05:27:12.568Z,4424
2017-04-24T05:27:53.184Z,4496
2017-04-24T05:28:33.759Z,4564
2017-04-24T05:29:14.432Z,4632
2017-04-24T05:29:55.067Z,4704
2017-04-24T05:30:35.689Z,4776
2017-04-24T05:31:16.304Z,4860
2017-04-24T05:31:56.914Z,4928
2017-04-24T05:32:37.526Z,5000
2017-04-24T05:33:18.194Z,5084
2017-04-24T05:33:58.796Z,5164
2017-04-24T05:34:39.421Z,5248
2017-04-24T05:35:20.039Z,5320
2017-04-24T05:36:00.651Z,5412
2017-04-24T05:36:41.291Z,5520
2017-04-24T05:37:21.935Z,5596
2017-04-24T05:38:02.554Z,5704
2017-04-24T05:38:43.227Z,5784
2017-04-24T05:39:23.862Z,5884
2017-04-24T05:40:04.530Z,5964
2017-04-24T05:40:45.186Z,6068
2017-04-24T05:41:25.814Z,6172
2017-04-24T05:42:06.407Z,6268
2017-04-24T05:42:47.038Z,6356
2017-04-24T05:43:27.680Z,6444
2017-04-24T05:44:08.345Z,6548
2017-04-24T05:44:48.934Z,6648
2017-04-24T05:45:29.531Z,6740
2017-04-24T05:46:10.107Z,6848
2017-04-24T05:46:50.709Z,6932
2017-04-24T05:47:31.342Z,7040
2017-04-24T05:48:11.965Z,7156
2017-04-24T05:48:52.587Z,7264
2017-04-24T05:49:33.221Z,7376
2017-04-24T05:50:13.835Z,7464
2017-04-24T05:50:54.475Z,7588
2017-04-24T05:51:35.101Z,7692
2017-04-24T05:52:15.703Z,7808
2017-04-24T05:52:56.290Z,7944
2017-04-24T05:53:36.895Z,8068
2017-04-24T05:54:17.502Z,8188
2017-04-24T05:54:58.102Z,8316
2017-04-24T05:55:38.705Z,8420
2017-04-24T05:56:19.288Z,8540
2017-04-24T05:56:59.912Z,8656
2017-04-24T05:57:40.527Z,8772
2017-04-24T05:58:21.142Z,8892
2017-04-24T05:59:01.752Z,9020
2017-04-24T05:59:42.382Z,9120
2017-04-24T06:00:23.012Z,9228
2017-04-24T06:01:03.596Z,9376
2017-04-24T06:01:44.187Z,9476
2017-04-24T06:02:24.822Z,9612
2017-04-24T06:03:05.433Z,9708
2017-04-24T06:03:46.049Z,9812
2017-04-24T06:04:26.649Z,9932
2017-04-24T06:05:07.265Z,10036
2017-04-24T06:05:47.870Z,10188
2017-04-24T06:06:28.458Z,10304
2017-04-24T06:07:09.048Z,10420
2017-04-24T06:07:49.628Z,10536
2017-04-24T06:08:30.247Z,10696
2017-04-24T06:09:10.828Z,10800
2017-04-24T06:09:51.437Z,10920
2017-04-24T06:10:32.004Z,11072
2017-04-24T06:11:12.602Z,11236
2017-04-24T06:11:53.180Z,11380
2017-04-24T06:12:33.744Z,11508
2017-04-24T06:13:14.347Z,11660
2017-04-24T06:13:54.884Z,11764
2017-04-24T06:14:35.451Z,11836
2017-04-24T06:15:16.004Z,11900
2017-04-24T06:15:56.598Z,11976
2017-04-24T06:16:37.194Z,12008
2017-04-24T06:17:17.795Z,11988
2017-04-24T06:17:58.423Z,12284
2017-04-24T06:18:39.019Z,12200
2017-04-24T06:19:19.658Z,12148
2017-04-24T06:20:00.180Z,12192
2017-04-24T06:20:40.667Z,12680
2017-04-24T06:21:21.280Z,12892
2017-04-24T06:22:01.911Z,12996
2017-04-24T06:22:42.532Z,13100
2017-04-24T06:23:23.175Z,13256
2017-04-24T06:24:03.741Z,13380
2017-04-24T06:24:44.355Z,13548
2017-04-24T06:25:24.944Z,13688
2017-04-24T06:26:05.548Z,13812
2017-04-24T06:26:46.185Z,13936
2017-04-24T06:27:26.827Z,14068
2017-04-24T06:28:07.446Z,14232
2017-04-24T06:28:48.097Z,14364
2017-04-24T06:29:28.739Z,14540
2017-04-24T06:30:09.317Z,14684
2017-04-24T06:30:49.889Z,14816
2017-04-24T06:31:30.552Z,14912
2017-04-24T06:32:11.181Z,15040
2017-04-24T06:32:51.767Z,15236
2017-04-24T06:33:32.379Z,15408
2017-04-24T06:34:12.998Z,15684
2017-04-24T06:34:53.604Z,16288
2017-04-24T06:35:34.174Z,16800
2017-04-24T06:36:14.697Z,17088
2017-04-24T06:36:55.286Z,17280
2017-04-24T06:37:35.850Z,17408
2017-04-24T06:38:16.411Z,17728
2017-04-24T06:38:56.932Z,17824
2017-04-24T06:39:37.520Z,17856
2017-04-24T06:40:18.029Z,17824
2017-04-24T06:40:58.675Z,18112
2017-04-24T06:41:39.946Z,18368
2017-04-24T06:42:20.453Z,18752
2017-04-24T06:43:00.971Z,19168
2017-04-24T06:43:41.505Z,19584
2017-04-24T06:44:22.027Z,20000
2017-04-24T06:45:02.543Z,20416
2017-04-24T06:45:43.078Z,20928
2017-04-24T06:46:23.618Z,21376
2017-04-24T06:47:04.212Z,21696
2017-04-24T06:47:44.808Z,21920
2017-04-24T06:48:25.416Z,22048
2017-04-24T06:49:06.006Z,22176
2017-04-24T06:49:46.529Z,22304
2017-04-24T06:50:27.064Z,22496
2017-04-24T06:51:07.564Z,22496
2017-04-24T06:51:48.095Z,22528
2017-04-24T06:52:28.656Z,22688
2017-04-24T06:53:09.213Z,22848
2017-04-24T06:53:49.770Z,22656
2017-04-24T06:54:30.298Z,22176
2017-04-24T06:55:10.859Z,21600
2017-04-24T06:55:51.436Z,21184
2017-04-24T06:56:31.999Z,20768
2017-04-24T06:57:12.536Z,20096
2017-04-24T06:57:53.113Z,19552
2017-04-24T06:58:33.661Z,19040
2017-04-24T06:59:14.217Z,18624
2017-04-24T06:59:54.711Z,18144
2017-04-24T07:00:35.288Z,17728
2017-04-24T07:01:15.805Z,17312
2017-04-24T07:01:56.363Z,17248
2017-04-24T07:02:36.858Z,17088
2017-04-24T07:03:17.430Z,16704
2017-04-24T07:03:57.973Z,16152
2017-04-24T07:04:38.538Z,15844
2017-04-24T07:05:19.095Z,15544
2017-04-24T07:05:59.668Z,15232
2017-04-24T07:06:40.220Z,14852
2017-04-24T07:07:20.780Z,14588
2017-04-24T07:08:01.335Z,14404
2017-04-24T07:08:41.894Z,14328
2017-04-24T07:09:22.438Z,14272
2017-04-24T07:10:02.998Z,14160
2017-04-24T07:10:43.551Z,14024
2017-04-24T07:11:24.103Z,13828
2017-04-24T07:12:04.610Z,13544
2017-04-24T07:12:45.142Z,13488
2017-04-24T07:13:25.705Z,13420
2017-04-24T07:14:06.256Z,13320
2017-04-24T07:14:46.833Z,13324
2017-04-24T07:15:27.366Z,13476
2017-04-24T07:17:45.243Z,21600
2017-04-24T07:18:25.797Z,13268
2017-04-24T07:19:06.346Z,11868
2017-04-24T07:19:46.869Z,11836
2017-04-24T07:20:27.457Z,11640
2017-04-24T07:21:08.070Z,11344
2017-04-24T07:21:48.623Z,11232
2017-04-24T07:22:29.161Z,11272
2017-04-24T07:23:09.735Z,11376
2017-04-24T07:23:50.298Z,11564
2017-04-24T07:24:30.876Z,12712
2017-04-24T07:25:11.429Z,15688
2017-04-24T07:25:51.998Z,20416
2017-04-24T07:26:32.530Z,23616
2017-04-24T07:27:13.028Z,22816
2017-04-24T07:27:53.549Z,19328
2017-04-24T07:28:34.067Z,16928
2017-04-24T07:29:14.591Z,14700
2017-04-24T07:29:55.157Z,13616
2017-04-24T07:30:35.685Z,13508
2017-04-24T07:31:16.184Z,13536
2017-04-24T07:31:56.712Z,13552
2017-04-24T07:32:37.196Z,13564
2017-04-24T07:33:18.261Z,13580
2017-04-24T07:33:58.791Z,13572
2017-04-24T07:34:39.317Z,13624
2017-04-24T07:35:19.827Z,13720
2017-04-24T07:36:00.305Z,13772
2017-04-24T07:36:40.871Z,13708
2017-04-24T07:37:21.414Z,13632
2017-04-24T07:38:01.890Z,13572
2017-04-24T07:38:42.383Z,13528
2017-04-24T07:39:22.893Z,13520
2017-04-24T07:40:03.409Z,13504
2017-04-24T07:40:43.935Z,13536
2017-04-24T07:42:56.639Z,13608
2017-04-24T07:43:37.150Z,13612
2017-04-24T07:44:17.661Z,13616
2017-04-24T07:44:58.134Z,13636
2017-04-24T07:45:38.616Z,13692
2017-04-24T07:46:19.193Z,13744
2017-04-24T07:46:59.780Z,13860
2017-04-24T07:47:40.437Z,13908
2017-04-24T07:48:20.973Z,13924
2017-04-24T07:49:01.479Z,13988
2017-04-24T07:49:42.065Z,14008
2017-04-24T07:50:22.605Z,14088
2017-04-24T07:51:03.153Z,14172
2017-04-24T07:51:43.682Z,14244
2017-04-24T07:52:24.235Z,14320
2017-04-24T07:53:04.758Z,14368
2017-04-24T07:53:45.342Z,14472
2017-04-24T07:54:25.941Z,14548
2017-04-24T07:55:06.470Z,14600
2017-04-24T07:55:47.017Z,14588
2017-04-24T07:56:28.221Z,14640
2017-04-24T07:57:08.732Z,14672
2017-04-24T07:57:49.264Z,14704
2017-04-24T07:58:29.738Z,14692
2017-04-24T07:59:10.257Z,14740
2017-04-24T07:59:50.770Z,14828
2017-04-24T08:00:31.242Z,14960
2017-04-24T08:01:11.772Z,15240
2017-04-24T08:01:52.264Z,15704
2017-04-24T08:02:32.774Z,16180
2017-04-24T08:03:13.339Z,16556
2017-04-24T08:03:53.877Z,16500
2017-04-24T08:04:34.404Z,16080
2017-04-24T08:05:14.951Z,15664
2017-04-24T08:05:55.491Z,15272
2017-04-24T08:06:36.059Z,14928
2017-04-24T08:07:16.601Z,14720
2017-04-24T08:07:57.147Z,14508
2017-04-24T08:08:37.667Z,14384
2017-04-24T08:09:18.201Z,14240
2017-04-24T08:09:58.748Z,14156
2017-04-24T08:10:39.245Z,14068
2017-04-24T08:11:19.775Z,13936
2017-04-24T08:12:00.321Z,13692
2017-04-24T08:12:40.823Z,13492
2017-04-24T08:13:21.412Z,13392
2017-04-24T08:14:01.958Z,13308
2017-04-24T08:14:42.480Z,13288
2017-04-24T08:15:23.034Z,13328
2017-04-24T08:16:03.533Z,13356
2017-04-24T08:16:44.060Z,13408
2017-04-24T08:17:25.452Z,13460
2017-04-24T08:18:05.979Z,13480
2017-04-24T08:18:46.605Z,13552
2017-04-24T08:19:27.216Z,13648
2017-04-24T08:20:07.764Z,13816
2017-04-24T08:20:48.305Z,13960
2017-04-24T08:21:28.888Z,14160
2017-04-24T08:22:09.418Z,14296
2017-04-24T08:22:49.957Z,14368
2017-04-24T08:23:30.514Z,14488
2017-04-24T08:24:11.059Z,14608
2017-04-24T08:24:51.624Z,14712
2017-04-24T08:25:32.138Z,14784
2017-04-24T08:26:12.626Z,14840
2017-04-24T08:26:53.359Z,14804
2017-04-24T08:27:34.137Z,14708
2017-04-24T08:29:52.276Z,14520
2017-04-24T08:30:32.879Z,14564
2017-04-24T08:31:13.485Z,14552
2017-04-24T08:33:31.470Z,14608
2017-04-24T08:34:12.209Z,14672
2017-04-24T08:34:52.932Z,14640
2017-04-24T08:35:33.546Z,14716
2017-04-24T08:36:14.303Z,14800
2017-04-24T08:36:55.964Z,14940
2017-04-24T08:37:37.344Z,15108
2017-04-24T08:38:18.140Z,15156
2017-04-24T08:38:58.983Z,15264
2017-04-24T08:39:39.610Z,15224
2017-04-24T08:40:20.307Z,15244
2017-04-24T08:41:00.958Z,15268
2017-04-24T08:41:41.665Z,15284
2017-04-24T08:42:22.791Z,15292
2017-04-24T08:43:03.482Z,15308
2017-04-24T08:43:44.119Z,15356
2017-04-24T08:44:24.786Z,15356
2017-04-24T08:45:05.451Z,15320
2017-04-24T08:45:46.311Z,15384
2017-04-24T08:46:26.995Z,15460
2017-04-24T08:47:07.714Z,15488
2017-04-24T08:47:48.383Z,15572
2017-04-24T08:48:28.963Z,15700
2017-04-24T08:49:09.432Z,15816
2017-04-24T08:51:27.441Z,16104
2017-04-24T08:52:08.039Z,16204
2017-04-24T08:52:48.715Z,16340
2017-04-24T08:53:29.353Z,16488
2017-04-24T08:54:09.945Z,16580
2017-04-24T08:54:50.552Z,16740
2017-04-24T08:55:31.178Z,16832
2017-04-24T08:56:11.862Z,16888
2017-04-24T08:56:52.516Z,17036
2017-04-24T08:57:33.165Z,17148
2017-04-24T08:58:13.745Z,17340
2017-04-24T08:58:54.379Z,17400
2017-04-24T08:59:35.027Z,17344
2017-04-24T09:00:15.654Z,17632
2017-04-24T09:00:56.271Z,17728
2017-04-24T09:01:36.953Z,17920
2017-04-24T09:02:17.597Z,18048
2017-04-24T09:02:58.262Z,18240
2017-04-24T09:03:38.965Z,18368
2017-04-24T09:04:19.600Z,18432
2017-04-24T09:05:00.139Z,18560
2017-04-24T09:05:40.761Z,18464
2017-04-24T09:06:21.437Z,18496
2017-04-24T09:07:02.096Z,18528
2017-04-24T09:07:42.748Z,18624
2017-04-24T09:08:23.418Z,18720
2017-04-24T09:09:04.030Z,18784
2017-04-24T09:09:44.669Z,18848
2017-04-24T09:10:25.324Z,18944
2017-04-24T09:11:05.967Z,18976
2017-04-24T09:11:46.584Z,18944
2017-04-24T09:12:27.216Z,18880
2017-04-24T09:13:07.844Z,18848
2017-04-24T09:13:48.486Z,18944
2017-04-24T09:14:29.155Z,18944
2017-04-24T09:15:09.769Z,18976
2017-04-24T09:15:50.402Z,19040
2017-04-24T09:16:31.025Z,19136
2017-04-24T09:17:11.653Z,19104
2017-04-24T09:17:52.299Z,19168
2017-04-24T09:18:32.964Z,19168
2017-04-24T09:19:13.582Z,19168
2017-04-24T09:19:54.209Z,19264
2017-04-24T09:20:34.860Z,19296
2017-04-24T09:21:15.818Z,19232
2017-04-24T09:21:57.478Z,19488
2017-04-24T09:22:38.108Z,19488
2017-04-24T09:23:18.765Z,19520
2017-04-24T09:23:59.453Z,19296
2017-04-24T09:24:40.070Z,19104
2017-04-24T09:25:20.711Z,18816
2017-04-24T09:26:01.316Z,19328
2017-04-24T09:26:41.936Z,19264
2017-04-24T09:27:22.588Z,19168
2017-04-24T09:28:03.269Z,19104
2017-04-24T09:28:43.914Z,18432
2017-04-24T09:29:24.561Z,18528